createdAt,value
2022-10-31T00:00:48.371Z,101343.80
2022-10-31T00:03:24.657Z,101345.60
2022-10-31T00:06:02.747Z,101345.20
2022-10-31T00:08:38.552Z,101343.20
2022-10-31T00:11:16.254Z,101341.20
2022-10-31T00:13:53.222Z,101342.20
2022-10-31T00:16:31.552Z,101344.00
2022-10-31T00:19:10.531Z,101348.00
2022-10-31T00:21:47.159Z,101344.20
2022-10-31T00:24:24.769Z,101343.40
2022-10-31T00:27:00.842Z,101347.60
2022-10-31T00:29:37.569Z,101345.20
2022-10-31T00:32:15.053Z,101347.00
2022-10-31T00:34:51.833Z,101344.60
2022-10-31T00:37:28.952Z,101349.20
2022-10-31T00:40:05.245Z,101349.60
2022-10-31T00:42:42.604Z,101346.00
2022-10-31T00:45:19.960Z,101347.80
2022-10-31T00:47:55.918Z,101341.00
2022-10-31T00:50:32.814Z,101341.40
2022-10-31T00:53:09.632Z,101345.40
2022-10-31T00:55:44.861Z,101349.80
2022-10-31T00:58:21.550Z,101348.80
2022-10-31T01:00:58.623Z,101348.40
2022-10-31T01:03:36.513Z,101346.80
2022-10-31T01:06:16.222Z,101342.40
2022-10-31T01:08:53.228Z,101343.60
2022-10-31T01:11:30.434Z,101341.60
2022-10-31T01:14:06.504Z,101335.60
2022-10-31T01:16:42.805Z,101336.80
2022-10-31T01:19:18.941Z,101335.60
2022-10-31T01:21:57.058Z,101332.20
2022-10-31T01:24:37.869Z,101335.60
2022-10-31T01:27:13.868Z,101330.80
2022-10-31T01:29:50.407Z,101327.40
2022-10-31T01:32:26.995Z,101325.80
2022-10-31T01:35:02.131Z,101322.60
2022-10-31T01:37:39.454Z,101323.20
2022-10-31T01:40:19.407Z,101319.20
2022-10-31T01:42:55.475Z,101319.00
2022-10-31T01:45:32.938Z,101316.20
2022-10-31T01:48:15.039Z,101314.80
2022-10-31T01:50:54.878Z,101315.00
2022-10-31T01:53:31.837Z,101315.20
2022-10-31T01:56:11.282Z,101317.20
2022-10-31T01:58:49.029Z,101314.40
2022-10-31T02:01:26.728Z,101316.40
2022-10-31T02:04:03.477Z,101313.00
2022-10-31T02:06:46.921Z,101310.40
2022-10-31T02:09:24.735Z,101311.20
2022-10-31T02:12:02.746Z,101304.20
2022-10-31T02:14:39.881Z,101304.40
2022-10-31T02:17:17.004Z,101298.20
2022-10-31T02:20:03.944Z,101293.40
2022-10-31T02:22:52.613Z,101294.40
2022-10-31T02:25:57.570Z,101293.40
2022-10-31T02:29:09.486Z,101292.00
2022-10-31T02:31:55.649Z,101292.20
2022-10-31T02:34:41.398Z,101292.60
2022-10-31T02:37:24.741Z,101291.40
2022-10-31T02:40:14.038Z,101288.20
2022-10-31T02:43:23.317Z,101295.80
2022-10-31T02:46:05.981Z,101293.20
2022-10-31T02:48:49.903Z,101300.00
2022-10-31T02:51:26.955Z,101300.60
2022-10-31T02:54:03.617Z,101301.40
2022-10-31T02:56:39.844Z,101298.00
2022-10-31T02:59:16.767Z,101301.20
2022-10-31T03:02:21.458Z,101298.60
2022-10-31T03:08:12.280Z,101298.80
2022-10-31T03:10:56.623Z,101297.00
2022-10-31T03:13:44.041Z,101294.80
2022-10-31T03:16:29.215Z,101296.20
2022-10-31T03:19:11.088Z,101297.60
2022-10-31T03:21:50.906Z,101298.00
2022-10-31T03:24:33.334Z,101301.20
2022-10-31T03:27:14.008Z,101301.20
2022-10-31T03:29:52.706Z,101301.20
2022-10-31T03:32:36.051Z,101302.80
2022-10-31T03:35:19.261Z,101301.60
2022-10-31T03:37:57.641Z,101298.80
2022-10-31T03:40:36.499Z,101300.40
2022-10-31T03:43:19.011Z,101301.20
2022-10-31T03:45:56.157Z,101301.60
2022-10-31T03:48:32.312Z,101304.80
2022-10-31T03:51:18.575Z,101307.20
2022-10-31T03:54:05.632Z,101306.60
2022-10-31T03:56:53.023Z,101311.00
2022-10-31T03:59:36.596Z,101312.40
2022-10-31T04:02:18.099Z,101314.80
2022-10-31T04:04:54.629Z,101316.40
2022-10-31T04:07:35.619Z,101318.00
2022-10-31T04:10:17.773Z,101317.80
2022-10-31T04:13:01.542Z,101323.20
2022-10-31T04:15:44.667Z,101329.20
2022-10-31T04:18:20.918Z,101327.80
2022-10-31T04:21:09.740Z,101328.00
2022-10-31T04:23:46.450Z,101330.40
2022-10-31T04:26:27.876Z,101325.80
2022-10-31T04:29:04.228Z,101324.20
2022-10-31T04:31:40.692Z,101325.80
2022-10-31T04:34:16.653Z,101325.80
2022-10-31T04:39:35.460Z,101325.20
2022-10-31T04:42:36.573Z,101323.80
2022-10-31T04:45:20.074Z,101322.40
2022-10-31T04:48:00.213Z,101321.00
2022-10-31T04:50:36.830Z,101319.00
2022-10-31T04:53:12.052Z,101321.00
2022-10-31T04:56:03.822Z,101322.60
2022-10-31T04:58:50.911Z,101322.60
2022-10-31T05:01:27.611Z,101323.00
2022-10-31T05:04:04.665Z,101320.80
2022-10-31T05:06:42.536Z,101323.60
2022-10-31T05:09:18.479Z,101321.60
2022-10-31T05:11:55.026Z,101319.80
2022-10-31T05:14:50.980Z,101320.40
2022-10-31T05:17:45.863Z,101323.40
2022-10-31T05:20:44.349Z,101321.20
2022-10-31T05:23:34.934Z,101322.00
2022-10-31T05:26:11.749Z,101320.20
2022-10-31T05:28:49.865Z,101321.00
2022-10-31T05:31:26.314Z,101321.40
2022-10-31T05:34:03.772Z,101313.20
2022-10-31T05:37:06.395Z,101314.80
2022-10-31T05:39:42.242Z,101320.40
2022-10-31T05:42:26.371Z,101319.20
2022-10-31T05:45:02.497Z,101317.20
2022-10-31T05:48:06.910Z,101318.60
2022-10-31T05:51:03.803Z,101321.00
2022-10-31T05:53:40.824Z,101319.00
2022-10-31T05:56:17.584Z,101317.40
2022-10-31T05:58:53.323Z,101319.20
2022-10-31T06:01:29.027Z,101317.00
2022-10-31T06:04:07.884Z,101320.80
2022-10-31T06:06:44.456Z,101320.20
2022-10-31T06:09:20.291Z,101323.00
2022-10-31T06:11:56.609Z,101323.20
2022-10-31T06:14:35.773Z,101327.80
2022-10-31T06:17:15.463Z,101332.20
2022-10-31T06:19:57.886Z,101336.60
2022-10-31T06:22:34.911Z,101339.00
2022-10-31T06:25:13.508Z,101335.20
2022-10-31T06:27:54.960Z,101332.80
2022-10-31T06:30:32.073Z,101335.80
2022-10-31T06:33:11.466Z,101334.80
2022-10-31T06:35:52.570Z,101338.80
2022-10-31T06:38:28.980Z,101342.00
2022-10-31T06:41:10.693Z,101341.60
2022-10-31T06:43:55.899Z,101343.20
2022-10-31T06:46:51.707Z,101340.80
2022-10-31T06:50:09.228Z,101345.60
2022-10-31T06:52:46.038Z,101348.20
2022-10-31T06:55:23.721Z,101349.40
2022-10-31T06:58:03.461Z,101352.00
2022-10-31T07:00:40.205Z,101350.00
2022-10-31T07:03:18.538Z,101358.00
2022-10-31T07:05:55.002Z,101357.80
2022-10-31T07:08:31.496Z,101366.20
2022-10-31T07:11:08.061Z,101372.20
2022-10-31T07:13:45.019Z,101370.80
2022-10-31T07:16:22.051Z,101376.40
2022-10-31T07:18:58.035Z,101378.20
2022-10-31T07:21:34.364Z,101381.40
2022-10-31T07:24:14.045Z,101384.80
2022-10-31T07:26:53.678Z,101381.20
2022-10-31T07:29:29.753Z,101379.40
2022-10-31T07:32:09.715Z,101382.00
2022-10-31T07:34:48.594Z,101381.40
2022-10-31T07:37:43.143Z,101384.40
2022-10-31T07:40:21.948Z,101388.60
2022-10-31T07:43:00.985Z,101386.40
2022-10-31T07:46:23.271Z,101389.00
2022-10-31T07:49:29.476Z,101393.80
2022-10-31T07:52:24.261Z,101401.20
2022-10-31T07:55:38.349Z,101400.80
2022-10-31T07:58:18.797Z,101402.20
2022-10-31T08:00:56.459Z,101407.60
2022-10-31T08:03:37.624Z,101410.20
2022-10-31T08:06:19.795Z,101410.80
2022-10-31T08:09:18.923Z,101410.80
2022-10-31T08:11:55.383Z,101411.20
2022-10-31T08:14:31.783Z,101409.00
2022-10-31T08:17:08.003Z,101410.00
2022-10-31T08:19:51.658Z,101410.40
2022-10-31T08:22:29.325Z,101412.20
2022-10-31T08:25:05.157Z,101408.80
2022-10-31T08:27:43.116Z,101411.00
2022-10-31T08:30:26.982Z,101409.00
2022-10-31T08:33:24.110Z,101410.40
2022-10-31T08:36:19.571Z,101407.60
2022-10-31T08:39:04.637Z,101412.20
2022-10-31T08:41:40.863Z,101418.80
2022-10-31T08:44:20.814Z,101414.60
2022-10-31T08:46:57.635Z,101415.80
2022-10-31T08:49:33.756Z,101419.40
2022-10-31T08:52:14.479Z,101422.60
2022-10-31T08:54:54.582Z,101418.80
2022-10-31T08:57:49.595Z,101425.40
2022-10-31T09:00:26.667Z,101425.00
2022-10-31T09:03:13.844Z,101426.00
2022-10-31T09:05:51.987Z,101426.60
2022-10-31T09:08:27.930Z,101427.20
2022-10-31T09:11:06.361Z,101426.20
2022-10-31T09:14:15.543Z,101425.60
2022-10-31T09:17:11.560Z,101422.20
2022-10-31T09:20:02.670Z,101420.00
2022-10-31T09:22:41.547Z,101418.00
2022-10-31T09:25:23.911Z,101415.80
2022-10-31T09:28:07.392Z,101412.60
2022-10-31T09:30:45.831Z,101405.60
2022-10-31T09:33:22.402Z,101407.60
2022-10-31T09:36:13.561Z,101406.80
2022-10-31T09:38:50.216Z,101402.60
2022-10-31T09:41:41.349Z,101405.40
2022-10-31T09:44:29.649Z,101403.00
2022-10-31T09:47:16.358Z,101399.40
2022-10-31T09:50:19.826Z,101396.60
2022-10-31T09:53:05.872Z,101395.80
2022-10-31T09:55:48.231Z,101393.20
2022-10-31T09:58:31.277Z,101389.20
2022-10-31T10:01:10.357Z,101394.20
2022-10-31T10:03:53.400Z,101393.00
2022-10-31T10:06:54.281Z,101385.80
2022-10-31T10:10:01.255Z,101387.60
2022-10-31T10:13:53.192Z,101391.60
2022-10-31T10:16:50.448Z,101388.20
2022-10-31T10:19:49.315Z,101382.00
2022-10-31T10:22:39.483Z,101380.00
2022-10-31T10:25:31.251Z,101383.40
2022-10-31T10:28:19.747Z,101380.20
2022-10-31T10:31:03.763Z,101378.00
2022-10-31T10:33:47.118Z,101377.60
2022-10-31T10:36:30.407Z,101372.80
2022-10-31T10:39:21.249Z,101371.80
2022-10-31T10:42:15.890Z,101376.40
2022-10-31T10:45:12.869Z,101373.20
2022-10-31T10:47:59.681Z,101376.20
2022-10-31T10:50:43.112Z,101377.40
2022-10-31T10:53:36.660Z,101377.00
2022-10-31T10:56:39.789Z,101375.80
2022-10-31T10:59:21.649Z,101375.00
2022-10-31T11:01:59.529Z,101373.20
2022-10-31T11:04:39.355Z,101368.20
2022-10-31T11:07:17.050Z,101368.40
2022-10-31T11:09:53.368Z,101364.60
2022-10-31T11:12:32.919Z,101357.20
2022-10-31T11:15:24.090Z,101355.60
2022-10-31T11:18:01.991Z,101351.80
2022-10-31T11:20:41.471Z,101348.40
2022-10-31T11:23:28.964Z,101348.40
2022-10-31T11:26:08.436Z,101345.40
2022-10-31T11:28:45.023Z,101346.00
2022-10-31T11:31:22.031Z,101342.00
2022-10-31T11:34:07.369Z,101344.00
2022-10-31T11:36:49.502Z,101344.00
2022-10-31T11:39:29.211Z,101340.20
2022-10-31T11:42:09.316Z,101342.00
2022-10-31T11:44:49.367Z,101337.00
2022-10-31T11:47:32.057Z,101332.00
2022-10-31T11:50:22.396Z,101331.40
2022-10-31T11:53:00.218Z,101329.40
2022-10-31T11:55:45.091Z,101325.40
2022-10-31T11:58:32.984Z,101322.60
2022-10-31T12:01:25.082Z,101323.20
2022-10-31T12:04:10.087Z,101321.20
2022-10-31T12:06:48.857Z,101314.80
2022-10-31T12:09:32.124Z,101310.40
2022-10-31T12:12:48.544Z,101308.60
2022-10-31T12:15:37.860Z,101305.00
2022-10-31T12:18:37.358Z,101303.00
2022-10-31T12:21:33.884Z,101298.60
2022-10-31T12:24:27.317Z,101295.60
2022-10-31T12:27:21.227Z,101293.00
2022-10-31T12:30:23.999Z,101291.80
2022-10-31T12:33:27.662Z,101288.20
2022-10-31T12:36:24.218Z,101290.80
2022-10-31T12:39:29.189Z,101289.00
2022-10-31T12:42:18.751Z,101286.80
2022-10-31T12:45:22.140Z,101283.80
2022-10-31T12:48:33.672Z,101274.60
2022-10-31T12:51:26.249Z,101272.20
2022-10-31T12:54:47.964Z,101266.20
2022-10-31T12:57:37.251Z,101258.60
2022-10-31T13:00:24.250Z,101251.80
2022-10-31T13:03:23.039Z,101254.00
2022-10-31T13:06:06.973Z,101248.80
2022-10-31T13:08:49.569Z,101247.60
2022-10-31T13:11:32.496Z,101244.60
2022-10-31T13:14:15.281Z,101242.80
2022-10-31T13:16:55.488Z,101246.80
2022-10-31T13:19:36.493Z,101247.60
2022-10-31T13:22:25.425Z,101247.20
2022-10-31T13:25:16.839Z,101247.60
2022-10-31T13:28:00.952Z,101246.60
2022-10-31T13:30:42.188Z,101246.40
2022-10-31T13:33:27.485Z,101245.00
2022-10-31T13:36:25.079Z,101249.40
2022-10-31T13:39:14.412Z,101243.60
2022-10-31T13:41:57.010Z,101239.20
2022-10-31T13:44:38.870Z,101242.60
2022-10-31T13:47:31.893Z,101240.60
2022-10-31T13:50:29.329Z,101244.20
2022-10-31T13:53:26.365Z,101244.00
2022-10-31T13:56:31.486Z,101241.00
2022-10-31T13:59:23.665Z,101237.80
2022-10-31T14:02:06.269Z,101238.80
2022-10-31T14:07:32.822Z,101232.00
2022-10-31T14:10:26.030Z,101230.60
2022-10-31T14:13:12.851Z,101229.40
2022-10-31T14:15:59.609Z,101227.60
2022-10-31T14:18:39.912Z,101224.40
2022-10-31T14:21:40.748Z,101223.80
2022-10-31T14:24:37.570Z,101220.00
2022-10-31T14:27:50.588Z,101223.60
2022-10-31T14:30:30.884Z,101228.40
2022-10-31T14:33:21.879Z,101227.80
2022-10-31T14:36:08.173Z,101227.60
2022-10-31T14:39:01.817Z,101223.60
2022-10-31T14:42:14.638Z,101224.60
2022-10-31T14:45:24.864Z,101223.40
2022-10-31T14:48:19.846Z,101216.00
2022-10-31T14:50:59.861Z,101218.00
2022-10-31T14:53:47.162Z,101217.60
2022-10-31T14:56:28.911Z,101218.00
2022-10-31T14:59:13.573Z,101217.40
2022-10-31T15:02:02.888Z,101213.60
2022-10-31T15:04:42.179Z,101207.80
2022-10-31T15:07:24.897Z,101208.60
2022-10-31T15:10:22.713Z,101214.00
2022-10-31T15:12:59.550Z,101215.40
2022-10-31T15:15:38.786Z,101216.80
2022-10-31T15:18:24.592Z,101210.20
2022-10-31T15:21:02.986Z,101216.20
2022-10-31T15:23:40.123Z,101216.00
2022-10-31T15:26:26.556Z,101217.00
2022-10-31T15:29:15.172Z,101219.80
2022-10-31T15:31:59.882Z,101214.00
2022-10-31T15:34:42.867Z,101212.20
2022-10-31T15:37:22.642Z,101211.00
2022-10-31T15:39:58.892Z,101211.60
2022-10-31T15:42:42.952Z,101217.60
2022-10-31T15:45:29.771Z,101220.40
2022-10-31T15:48:10.328Z,101217.60
2022-10-31T15:50:52.570Z,101217.00
2022-10-31T15:53:36.114Z,101218.80
2022-10-31T15:56:23.506Z,101217.80
2022-10-31T15:59:04.222Z,101220.60
2022-10-31T16:01:41.459Z,101221.80
2022-10-31T16:04:32.868Z,101227.20
2022-10-31T16:07:23.402Z,101225.20
2022-10-31T16:10:05.933Z,101227.20
2022-10-31T16:12:49.013Z,101228.40
2022-10-31T16:15:27.848Z,101231.80
2022-10-31T16:18:04.026Z,101233.60
2022-10-31T16:20:39.858Z,101234.40
2022-10-31T16:23:24.508Z,101238.80
2022-10-31T16:26:01.353Z,101247.00
2022-10-31T16:28:39.680Z,101251.80
2022-10-31T16:31:30.640Z,101259.20
2022-10-31T16:34:26.003Z,101265.00
2022-10-31T16:37:07.435Z,101269.00
2022-10-31T16:39:44.029Z,101266.40
2022-10-31T16:42:20.582Z,101269.60
2022-10-31T16:44:57.842Z,101271.00
2022-10-31T16:47:34.713Z,101267.60
2022-10-31T16:50:21.693Z,101273.00
2022-10-31T16:53:13.516Z,101275.00
2022-10-31T16:55:54.242Z,101279.80
2022-10-31T16:58:34.010Z,101286.80
2022-10-31T17:01:12.139Z,101290.40
2022-10-31T17:03:48.460Z,101298.00
2022-10-31T17:06:28.613Z,101300.20
2022-10-31T17:09:05.103Z,101299.00
2022-10-31T17:11:48.413Z,101301.60
2022-10-31T17:14:26.998Z,101300.00
2022-10-31T17:17:02.729Z,101300.60
2022-10-31T17:19:39.594Z,101299.00
2022-10-31T17:22:17.423Z,101298.20
2022-10-31T17:24:55.139Z,101301.00
2022-10-31T17:27:31.262Z,101303.20
2022-10-31T17:30:08.027Z,101304.00
2022-10-31T17:32:44.065Z,101300.20
2022-10-31T17:35:22.129Z,101298.80
2022-10-31T17:37:58.811Z,101301.40
2022-10-31T17:40:35.565Z,101302.00
2022-10-31T17:43:11.695Z,101306.80
2022-10-31T17:45:48.920Z,101312.20
2022-10-31T17:48:25.839Z,101311.60
2022-10-31T17:51:21.495Z,101309.00
2022-10-31T17:53:58.363Z,101312.00
2022-10-31T17:56:37.392Z,101313.20
2022-10-31T17:59:13.564Z,101313.60
2022-10-31T18:01:49.876Z,101315.00
2022-10-31T18:04:25.315Z,101315.20
2022-10-31T18:07:02.161Z,101312.40
2022-10-31T18:09:37.795Z,101315.20
2022-10-31T18:12:14.479Z,101311.20
2022-10-31T18:14:50.329Z,101310.80
2022-10-31T18:17:26.868Z,101310.20
2022-10-31T18:20:03.143Z,101309.20
2022-10-31T18:22:39.630Z,101308.80
2022-10-31T18:25:17.433Z,101312.40
2022-10-31T18:27:53.674Z,101317.20
2022-10-31T18:30:30.353Z,101319.40
2022-10-31T18:33:06.993Z,101315.80
2022-10-31T18:35:45.182Z,101317.40
2022-10-31T18:38:21.603Z,101312.00
2022-10-31T18:40:58.883Z,101313.20
2022-10-31T18:43:35.827Z,101311.20
2022-10-31T18:46:14.541Z,101315.80
2022-10-31T18:48:51.395Z,101314.60
2022-10-31T18:51:28.407Z,101313.40
2022-10-31T18:54:09.664Z,101310.00
2022-10-31T18:56:46.212Z,101311.40
2022-10-31T18:59:22.831Z,101308.80
2022-10-31T19:01:59.455Z,101310.20
2022-10-31T19:04:35.664Z,101312.40
2022-10-31T19:07:16.335Z,101316.60
2022-10-31T19:09:52.929Z,101315.40
2022-10-31T19:12:29.523Z,101315.40
2022-10-31T19:15:06.805Z,101315.80
2022-10-31T19:17:42.850Z,101317.80
2022-10-31T19:20:24.884Z,101316.40
2022-10-31T19:23:01.328Z,101319.60
2022-10-31T19:28:21.739Z,101318.00
2022-10-31T19:31:02.040Z,101319.80
2022-10-31T19:33:40.019Z,101322.40
2022-10-31T19:36:20.219Z,101320.20
2022-10-31T19:38:57.587Z,101319.40
2022-10-31T19:41:34.493Z,101318.20
2022-10-31T19:44:13.386Z,101315.00
2022-10-31T19:46:54.121Z,101317.00
2022-10-31T19:49:33.929Z,101319.80
2022-10-31T19:52:28.326Z,101321.80
2022-10-31T19:55:04.462Z,101322.60
2022-10-31T19:58:00.659Z,101325.00
2022-10-31T20:00:40.001Z,101324.60
2022-10-31T20:03:19.925Z,101322.80
2022-10-31T20:05:58.967Z,101324.20
2022-10-31T20:08:39.448Z,101327.80
2022-10-31T20:11:16.008Z,101329.20
2022-10-31T20:13:53.019Z,101325.60
2022-10-31T20:16:30.231Z,101326.80
2022-10-31T20:19:06.680Z,101325.00
2022-10-31T20:21:45.540Z,101327.00
2022-10-31T20:24:21.647Z,101326.80
2022-10-31T20:26:58.915Z,101329.60
2022-10-31T20:29:34.696Z,101331.80
2022-10-31T20:32:11.052Z,101330.60
2022-10-31T20:37:25.080Z,101333.60
2022-10-31T20:40:01.476Z,101332.80
2022-10-31T20:42:37.151Z,101333.60
2022-10-31T20:45:17.251Z,101334.40
2022-10-31T20:47:53.517Z,101333.20
2022-10-31T20:50:30.772Z,101332.20
2022-10-31T20:53:07.412Z,101338.20
2022-10-31T20:55:43.991Z,101338.80
2022-10-31T20:58:19.702Z,101340.40
2022-10-31T21:00:55.634Z,101339.60
2022-10-31T21:03:31.536Z,101339.80
2022-10-31T21:06:10.330Z,101341.80
2022-10-31T21:08:46.991Z,101340.20
2022-10-31T21:11:26.781Z,101339.20
2022-10-31T21:14:02.960Z,101339.40
2022-10-31T21:16:41.396Z,101341.20
2022-10-31T21:19:18.437Z,101338.40
2022-10-31T21:21:54.638Z,101339.20
2022-10-31T21:24:31.464Z,101339.00
2022-10-31T21:27:09.958Z,101339.00
2022-10-31T21:29:47.964Z,101340.40
2022-10-31T21:32:23.627Z,101336.80
2022-10-31T21:35:00.408Z,101338.80
2022-10-31T21:37:37.030Z,101338.20
2022-10-31T21:40:18.751Z,101335.20
2022-10-31T21:42:54.807Z,101335.60
2022-10-31T21:45:31.262Z,101330.60
2022-10-31T21:48:08.394Z,101333.60
2022-10-31T21:50:43.947Z,101330.20
2022-10-31T21:53:37.410Z,101330.40
2022-10-31T21:56:16.290Z,101331.60
2022-10-31T21:58:52.987Z,101335.00
2022-10-31T22:01:31.678Z,101335.20
2022-10-31T22:04:09.282Z,101332.40
2022-10-31T22:06:45.675Z,101330.00
2022-10-31T22:09:23.967Z,101328.80
2022-10-31T22:12:01.534Z,101325.80
2022-10-31T22:14:38.042Z,101330.60
2022-10-31T22:17:13.617Z,101324.00
2022-10-31T22:19:49.213Z,101325.20
2022-10-31T22:22:26.424Z,101324.60
2022-10-31T22:25:02.877Z,101322.80
2022-10-31T22:27:39.494Z,101322.60
2022-10-31T22:30:20.164Z,101324.00
2022-10-31T22:32:56.272Z,101328.60
2022-10-31T22:35:32.350Z,101326.60
2022-10-31T22:38:08.247Z,101325.80
2022-10-31T22:40:44.390Z,101328.00
2022-10-31T22:43:20.575Z,101320.40
2022-10-31T22:46:03.734Z,101320.00
2022-10-31T22:48:44.553Z,101320.40
2022-10-31T22:51:24.304Z,101324.60
2022-10-31T22:54:01.043Z,101326.00
2022-10-31T22:56:39.701Z,101325.20
2022-10-31T22:59:20.201Z,101320.00
2022-10-31T23:01:56.456Z,101319.20
2022-10-31T23:04:33.082Z,101321.20
2022-10-31T23:07:13.601Z,101322.20
2022-10-31T23:09:50.600Z,101323.20
2022-10-31T23:12:43.192Z,101326.00
2022-10-31T23:15:19.962Z,101323.80
2022-10-31T23:17:55.955Z,101322.80
2022-10-31T23:20:33.106Z,101324.60
2022-10-31T23:23:09.400Z,101322.40
2022-10-31T23:26:04.758Z,101325.80
2022-10-31T23:28:40.753Z,101320.60
2022-10-31T23:31:16.690Z,101317.60
2022-10-31T23:33:53.907Z,101318.40
2022-10-31T23:36:29.887Z,101320.60
2022-10-31T23:39:06.118Z,101317.20
2022-10-31T23:41:42.118Z,101314.40
2022-10-31T23:44:18.747Z,101310.80
2022-10-31T23:46:55.399Z,101308.80
2022-10-31T23:49:31.829Z,101310.20
2022-10-31T23:52:08.440Z,101313.00
2022-10-31T23:54:44.115Z,101308.00
2022-10-31T23:57:21.431Z,101306.80
2022-10-31T23:59:56.991Z,101303.60
